createdAt,value
2019-05-07T00:02:15.465Z,25.95
2019-05-07T00:04:48.434Z,23.50
2019-05-07T00:07:22.400Z,20.27
2019-05-07T00:09:55.576Z,19.67
2019-05-07T00:12:28.533Z,16.53
2019-05-07T00:15:04.446Z,20.20
2019-05-07T00:17:36.263Z,18.27
2019-05-07T00:20:10.167Z,19.33
2019-05-07T00:22:43.161Z,19.07
2019-05-07T00:25:17.184Z,20.75
2019-05-07T00:27:52.303Z,20.37
2019-05-07T00:30:25.037Z,23.50
2019-05-07T00:32:57.971Z,21.67
2019-05-07T00:35:34.977Z,24.10
2019-05-07T00:38:12.800Z,23.70
2019-05-07T00:40:56.594Z,23.92
2019-05-07T00:43:32.751Z,18.73
2019-05-07T00:46:08.995Z,24.63
2019-05-07T00:48:42.378Z,26.27
2019-05-07T00:51:34.534Z,20.15
2019-05-07T00:54:08.483Z,25.62
2019-05-07T00:56:42.940Z,21.07
2019-05-07T00:59:15.952Z,24.35
2019-05-07T01:01:48.746Z,20.60
2019-05-07T01:04:22.924Z,19.12
2019-05-07T01:06:57.049Z,19.20
2019-05-07T01:09:32.243Z,18.15
2019-05-07T01:12:04.559Z,22.25
2019-05-07T01:14:37.451Z,13.78
2019-05-07T01:17:10.285Z,18.43
2019-05-07T01:19:43.074Z,20.12
2019-05-07T01:22:16.138Z,16.42
2019-05-07T01:24:52.450Z,17.10
2019-05-07T01:27:25.252Z,15.57
2019-05-07T01:29:58.104Z,18.40
2019-05-07T01:32:37.227Z,13.77
2019-05-07T01:35:22.425Z,16.80
2019-05-07T01:37:56.737Z,13.60
2019-05-07T01:40:32.371Z,17.90
2019-05-07T01:43:05.317Z,17.42
2019-05-07T01:45:49.112Z,16.00
2019-05-07T01:48:19.249Z,13.13
2019-05-07T01:50:53.160Z,16.97
2019-05-07T01:53:25.919Z,21.67
2019-05-07T01:55:59.012Z,18.23
2019-05-07T01:58:33.133Z,13.97
2019-05-07T02:01:06.529Z,16.70
2019-05-07T02:04:02.337Z,15.53
2019-05-07T02:06:43.520Z,16.67
2019-05-07T02:09:42.468Z,14.13
2019-05-07T02:12:22.194Z,23.90
2019-05-07T02:14:55.276Z,18.33
2019-05-07T02:17:28.231Z,17.10
2019-05-07T02:20:02.666Z,13.72
2019-05-07T02:22:35.758Z,15.00
2019-05-07T02:25:09.460Z,14.43
2019-05-07T02:27:42.450Z,17.17
2019-05-07T02:30:15.515Z,15.75
2019-05-07T02:32:48.328Z,15.30
2019-05-07T02:35:23.477Z,16.50
2019-05-07T02:38:05.383Z,13.75
2019-05-07T02:40:57.081Z,17.80
2019-05-07T02:43:29.948Z,20.53
2019-05-07T02:46:29.483Z,21.17
2019-05-07T02:49:16.463Z,17.00
2019-05-07T02:51:56.038Z,15.90
2019-05-07T02:54:46.299Z,18.20
2019-05-07T02:57:19.098Z,17.93
2019-05-07T02:59:54.483Z,18.87
2019-05-07T03:02:26.468Z,18.93
2019-05-07T03:04:59.775Z,18.60
2019-05-07T03:07:34.063Z,17.40
2019-05-07T03:10:07.147Z,15.10
2019-05-07T03:12:42.926Z,15.27
2019-05-07T03:15:14.934Z,15.47
2019-05-07T03:17:47.839Z,18.77
2019-05-07T03:20:25.051Z,19.37
2019-05-07T03:22:59.104Z,17.60
2019-05-07T03:25:53.791Z,18.73
2019-05-07T03:28:26.120Z,16.17
2019-05-07T03:31:09.084Z,19.17
2019-05-07T03:33:55.406Z,13.53
2019-05-07T03:36:46.595Z,14.90
2019-05-07T03:39:14.963Z,13.70
2019-05-07T03:41:47.871Z,14.43
2019-05-07T03:44:57.971Z,14.53
2019-05-07T03:47:36.113Z,17.00
2019-05-07T03:50:14.165Z,15.90
2019-05-07T03:52:45.868Z,16.37
2019-05-07T03:55:19.502Z,12.07
2019-05-07T03:57:52.836Z,15.13
2019-05-07T04:00:25.783Z,19.40
2019-05-07T04:02:58.810Z,15.03
2019-05-07T04:05:34.117Z,15.47
2019-05-07T04:08:06.162Z,15.17
2019-05-07T04:10:38.959Z,17.87
2019-05-07T04:13:13.372Z,18.07
2019-05-07T04:15:46.378Z,17.37
2019-05-07T04:18:19.160Z,20.30
2019-05-07T04:20:54.073Z,18.63
2019-05-07T04:23:26.546Z,17.47
2019-05-07T04:26:19.543Z,17.93
2019-05-07T04:29:06.203Z,14.45
2019-05-07T04:31:43.604Z,16.80
2019-05-07T04:34:24.705Z,17.07
2019-05-07T04:36:57.547Z,16.37
2019-05-07T04:39:33.305Z,19.37
2019-05-07T04:42:05.315Z,21.17
2019-05-07T04:44:38.145Z,29.42
2019-05-07T04:47:13.282Z,37.67
2019-05-07T04:49:45.669Z,48.33
2019-05-07T04:52:33.608Z,43.00
2019-05-07T04:55:09.186Z,34.40
2019-05-07T04:57:43.744Z,26.48
2019-05-07T05:00:17.413Z,22.30
2019-05-07T05:03:07.601Z,20.13
2019-05-07T05:05:43.269Z,14.25
2019-05-07T05:08:15.251Z,14.18
2019-05-07T05:10:48.197Z,15.20
2019-05-07T05:13:23.538Z,18.95
2019-05-07T05:15:55.716Z,13.50
2019-05-07T05:18:28.885Z,12.88
2019-05-07T05:21:28.071Z,8.45
2019-05-07T05:24:06.461Z,11.23
2019-05-07T05:26:41.785Z,14.53
2019-05-07T05:29:14.695Z,11.68
2019-05-07T05:31:47.534Z,24.50
2019-05-07T05:34:22.256Z,24.00
2019-05-07T05:36:55.003Z,11.60
2019-05-07T05:39:27.839Z,10.90
2019-05-07T05:42:08.271Z,10.10
2019-05-07T05:44:41.761Z,10.18
2019-05-07T05:47:14.753Z,8.30
2019-05-07T05:49:47.587Z,9.08
2019-05-07T05:52:32.897Z,11.45
2019-05-07T05:55:13.413Z,11.57
2019-05-07T05:58:12.211Z,8.70
2019-05-07T06:01:05.132Z,14.53
2019-05-07T06:04:12.441Z,10.58
2019-05-07T06:07:10.535Z,8.80
2019-05-07T06:09:55.762Z,8.65
2019-05-07T06:12:40.068Z,10.93
2019-05-07T06:15:22.978Z,11.30
2019-05-07T06:18:20.916Z,12.70
2019-05-07T06:21:04.303Z,9.10
2019-05-07T06:23:45.429Z,7.03
2019-05-07T06:26:18.270Z,8.18
2019-05-07T06:28:51.884Z,11.63
2019-05-07T06:31:24.807Z,10.45
2019-05-07T06:33:57.598Z,9.53
2019-05-07T06:36:32.826Z,10.38
2019-05-07T06:39:16.288Z,8.40
2019-05-07T06:42:06.869Z,5.37
2019-05-07T06:44:39.701Z,10.88
2019-05-07T06:47:13.152Z,6.87
2019-05-07T06:49:46.096Z,6.58
2019-05-07T06:52:18.933Z,6.00
2019-05-07T06:54:52.330Z,8.63
2019-05-07T06:57:27.001Z,8.55
2019-05-07T07:00:03.330Z,5.42
2019-05-07T07:02:58.433Z,6.40
2019-05-07T07:05:48.807Z,9.73
2019-05-07T07:08:27.288Z,5.78
2019-05-07T07:11:13.477Z,5.70
2019-05-07T07:13:46.364Z,5.30
2019-05-07T07:16:19.478Z,5.25
2019-05-07T07:18:55.488Z,7.47
2019-05-07T07:21:26.848Z,4.47
2019-05-07T07:23:59.704Z,7.80
2019-05-07T07:26:35.328Z,3.67
2019-05-07T07:29:12.577Z,7.08
2019-05-07T07:31:57.276Z,6.20
2019-05-07T07:34:33.288Z,5.70
2019-05-07T07:37:15.669Z,5.97
2019-05-07T07:39:48.599Z,6.65
2019-05-07T07:42:22.903Z,3.98
2019-05-07T07:45:15.295Z,12.00
2019-05-07T07:47:48.874Z,3.85
2019-05-07T07:50:22.399Z,6.30
2019-05-07T07:52:55.451Z,9.28
2019-05-07T07:55:37.173Z,6.72
2019-05-07T07:58:37.756Z,9.78
2019-05-07T08:01:18.613Z,7.60
2019-05-07T08:03:52.265Z,10.48
2019-05-07T08:06:27.290Z,6.20
2019-05-07T08:09:02.091Z,4.22
2019-05-07T08:11:36.462Z,12.33
2019-05-07T08:14:09.708Z,7.33
2019-05-07T08:16:43.175Z,6.53
2019-05-07T08:19:21.510Z,6.35
2019-05-07T08:21:52.157Z,7.10
2019-05-07T08:24:25.294Z,8.13
2019-05-07T08:26:59.226Z,6.25
2019-05-07T08:29:32.730Z,10.45
2019-05-07T08:32:24.429Z,5.42
2019-05-07T08:35:02.955Z,6.97
2019-05-07T08:37:35.940Z,9.93
2019-05-07T08:40:09.288Z,12.37
2019-05-07T08:42:42.447Z,6.20
2019-05-07T08:45:33.256Z,5.72
2019-05-07T08:48:12.489Z,8.10
2019-05-07T08:50:46.304Z,4.42
2019-05-07T08:53:19.252Z,4.05
2019-05-07T08:55:52.619Z,8.03
2019-05-07T08:58:25.904Z,6.50
2019-05-07T09:00:59.162Z,5.67
2019-05-07T09:03:45.021Z,5.58
2019-05-07T09:06:32.327Z,9.75
2019-05-07T09:09:13.050Z,6.20
2019-05-07T09:11:46.051Z,7.70
2019-05-07T09:14:19.099Z,4.78
2019-05-07T09:16:52.727Z,7.33
2019-05-07T09:19:25.722Z,10.08
2019-05-07T09:22:02.288Z,8.33
2019-05-07T09:24:35.596Z,6.95
2019-05-07T09:27:42.167Z,6.55
2019-05-07T09:30:32.674Z,6.12
2019-05-07T09:33:32.087Z,5.87
2019-05-07T09:36:07.143Z,7.35
2019-05-07T09:38:41.848Z,7.67
2019-05-07T09:41:27.285Z,6.28
2019-05-07T09:44:02.985Z,6.65
2019-05-07T09:46:35.064Z,6.42
2019-05-07T09:49:08.018Z,6.67
2019-05-07T09:51:42.674Z,3.58
2019-05-07T09:54:15.689Z,6.10
2019-05-07T09:56:48.581Z,9.23
2019-05-07T09:59:21.869Z,4.22
2019-05-07T10:01:54.985Z,2.67
2019-05-07T10:04:28.210Z,6.70
2019-05-07T10:07:02.714Z,8.63
2019-05-07T10:09:35.672Z,4.92
2019-05-07T10:12:28.976Z,5.00
2019-05-07T10:15:03.043Z,8.05
2019-05-07T10:17:55.361Z,4.75
2019-05-07T10:20:28.453Z,4.40
2019-05-07T10:23:02.405Z,6.75
2019-05-07T10:25:41.394Z,7.17
2019-05-07T10:28:14.372Z,7.50
2019-05-07T10:30:47.375Z,8.98
2019-05-07T10:33:20.366Z,7.05
2019-05-07T10:35:53.375Z,6.25
2019-05-07T10:38:26.328Z,6.08
2019-05-07T10:40:59.447Z,6.15
2019-05-07T10:43:32.962Z,6.03
2019-05-07T10:46:38.443Z,5.20
2019-05-07T10:49:17.902Z,4.97
2019-05-07T10:51:51.770Z,6.22
2019-05-07T10:54:24.964Z,9.05
2019-05-07T10:56:58.079Z,4.58
2019-05-07T10:59:30.960Z,4.03
2019-05-07T11:02:09.875Z,4.70
2019-05-07T11:04:45.746Z,7.00
2019-05-07T11:07:17.920Z,6.62
2019-05-07T11:09:52.496Z,4.15
2019-05-07T11:12:25.554Z,6.22
2019-05-07T11:14:58.386Z,8.75
2019-05-07T11:17:43.406Z,2.50
2019-05-07T11:20:17.699Z,5.33
2019-05-07T11:22:52.201Z,4.67
2019-05-07T11:25:25.278Z,4.65
2019-05-07T11:27:58.486Z,9.73
2019-05-07T11:30:32.143Z,4.03
2019-05-07T11:33:05.230Z,6.17
2019-05-07T11:35:38.129Z,6.08
2019-05-07T11:38:18.698Z,3.52
2019-05-07T11:40:45.823Z,4.47
2019-05-07T11:43:34.412Z,3.20
2019-05-07T11:46:17.484Z,6.75
2019-05-07T11:48:59.077Z,6.62
2019-05-07T11:51:46.172Z,3.87
2019-05-07T11:54:19.046Z,3.25
2019-05-07T11:56:53.776Z,6.55
2019-05-07T11:59:26.494Z,4.65
2019-05-07T12:02:03.537Z,5.47
2019-05-07T12:04:38.345Z,8.20
2019-05-07T12:07:11.899Z,3.42
2019-05-07T12:09:45.143Z,3.40
2019-05-07T12:12:17.962Z,5.65
2019-05-07T12:14:51.845Z,5.58
2019-05-07T12:17:24.873Z,2.85
2019-05-07T12:19:57.704Z,3.02
2019-05-07T12:22:47.392Z,2.33
2019-05-07T12:25:21.980Z,5.12
2019-05-07T12:27:55.440Z,4.90
2019-05-07T12:30:42.816Z,4.30
2019-05-07T12:33:42.633Z,7.00
2019-05-07T12:36:15.945Z,4.85
2019-05-07T12:38:48.747Z,6.15
2019-05-07T12:41:33.237Z,8.20
2019-05-07T12:44:07.785Z,7.62
2019-05-07T12:46:42.278Z,4.00
2019-05-07T12:49:15.333Z,4.83
2019-05-07T12:52:13.065Z,5.78
2019-05-07T12:54:53.193Z,2.17
2019-05-07T12:57:26.024Z,5.08
2019-05-07T13:00:17.891Z,2.72
2019-05-07T13:03:24.566Z,5.95
2019-05-07T13:05:57.490Z,34.90
2019-05-07T13:08:32.919Z,3.92
2019-05-07T13:11:06.518Z,4.62
2019-05-07T13:13:39.491Z,2.25
2019-05-07T13:16:12.909Z,3.25
2019-05-07T13:18:45.794Z,3.45
2019-05-07T13:21:18.633Z,6.40
2019-05-07T13:23:52.081Z,3.52
2019-05-07T13:26:25.163Z,6.00
2019-05-07T13:28:58.209Z,5.60
2019-05-07T13:31:34.010Z,5.67
2019-05-07T13:34:06.884Z,2.33
2019-05-07T13:36:43.080Z,4.28
2019-05-07T13:39:24.855Z,6.90
2019-05-07T13:42:03.781Z,8.08
2019-05-07T13:44:44.869Z,5.28
2019-05-07T13:47:42.659Z,4.70
2019-05-07T13:50:15.672Z,6.17
2019-05-07T13:52:48.565Z,4.20
2019-05-07T13:55:21.936Z,3.60
2019-05-07T13:57:54.929Z,4.90
2019-05-07T14:00:32.962Z,4.37
2019-05-07T14:03:06.048Z,3.87
2019-05-07T14:05:39.254Z,9.75
2019-05-07T14:08:14.132Z,3.92
2019-05-07T14:10:46.821Z,5.37
2019-05-07T14:13:21.868Z,3.25
2019-05-07T14:16:07.338Z,4.03
2019-05-07T14:18:41.603Z,7.87
2019-05-07T14:21:14.389Z,5.42
2019-05-07T14:23:47.405Z,15.00
2019-05-07T14:26:23.679Z,4.03
2019-05-07T14:28:54.880Z,4.33
2019-05-07T14:31:27.759Z,4.75
2019-05-07T14:34:09.442Z,5.22
2019-05-07T14:36:51.093Z,3.05
2019-05-07T14:39:24.694Z,3.77
2019-05-07T14:41:59.932Z,6.10
2019-05-07T14:44:48.989Z,4.83
2019-05-07T14:47:22.568Z,4.67
2019-05-07T14:49:55.439Z,8.00
2019-05-07T14:52:33.069Z,4.40
2019-05-07T14:55:05.330Z,6.22
2019-05-07T14:57:38.683Z,5.20
2019-05-07T15:00:12.455Z,4.22
2019-05-07T15:02:45.472Z,4.25
2019-05-07T15:05:22.211Z,7.50
2019-05-07T15:08:07.492Z,4.45
2019-05-07T15:10:29.316Z,5.62
2019-05-07T15:13:02.383Z,8.58
2019-05-07T15:15:35.444Z,6.33
2019-05-07T15:18:27.288Z,4.97
2019-05-07T15:21:01.864Z,10.32
2019-05-07T15:23:36.755Z,7.10
2019-05-07T15:26:10.282Z,5.87
2019-05-07T15:28:45.500Z,3.87
2019-05-07T15:31:21.759Z,5.62
2019-05-07T15:33:54.621Z,10.80
2019-05-07T15:36:27.575Z,10.43
2019-05-07T15:39:02.775Z,6.92
2019-05-07T15:41:36.739Z,3.55
2019-05-07T15:44:11.988Z,4.85
2019-05-07T15:46:45.095Z,5.90
2019-05-07T15:49:17.977Z,6.40
2019-05-07T15:51:54.335Z,3.55
2019-05-07T15:54:27.204Z,3.55
2019-05-07T15:57:03.060Z,14.33
2019-05-07T15:59:35.955Z,8.38
2019-05-07T16:02:17.975Z,6.30
2019-05-07T16:04:50.953Z,5.75
2019-05-07T16:07:23.837Z,6.80
2019-05-07T16:09:56.988Z,6.87
2019-05-07T16:12:31.975Z,4.33
2019-05-07T16:15:06.432Z,4.92
2019-05-07T16:17:43.088Z,7.85
2019-05-07T16:20:16.364Z,6.62
2019-05-07T16:22:55.030Z,4.83
2019-05-07T16:25:26.919Z,12.18
2019-05-07T16:28:02.078Z,6.00
2019-05-07T16:30:34.370Z,7.15
2019-05-07T16:33:07.253Z,6.20
2019-05-07T16:35:42.333Z,3.77
2019-05-07T16:38:18.070Z,10.00
2019-05-07T16:40:52.218Z,8.85
2019-05-07T16:43:25.307Z,6.55
2019-05-07T16:45:58.441Z,6.55
2019-05-07T16:48:32.689Z,6.92
2019-05-07T16:51:05.872Z,7.67
2019-05-07T16:53:38.835Z,4.80
2019-05-07T16:56:12.419Z,6.65
2019-05-07T16:58:52.210Z,7.65
2019-05-07T17:01:24.824Z,8.00
2019-05-07T17:03:59.198Z,6.65
2019-05-07T17:06:33.441Z,5.28
2019-05-07T17:09:16.414Z,6.20
2019-05-07T17:11:49.447Z,5.87
2019-05-07T17:14:22.424Z,4.75
2019-05-07T17:16:55.291Z,6.33
2019-05-07T17:19:28.282Z,10.00
2019-05-07T17:22:02.863Z,12.47
2019-05-07T17:24:35.986Z,8.90
2019-05-07T17:27:08.925Z,10.32
2019-05-07T17:29:42.954Z,9.00
2019-05-07T17:32:16.220Z,9.35
2019-05-07T17:34:49.172Z,5.37
2019-05-07T17:37:22.560Z,12.05
2019-05-07T17:39:55.645Z,9.55
2019-05-07T17:42:28.577Z,15.45
2019-05-07T17:45:02.955Z,6.53
2019-05-07T17:47:37.758Z,12.45
2019-05-07T17:50:13.020Z,12.82
2019-05-07T17:52:45.997Z,17.60
2019-05-07T17:55:18.957Z,14.95
2019-05-07T17:57:52.372Z,21.27
2019-05-07T18:00:25.684Z,12.88
2019-05-07T18:03:16.153Z,21.65
2019-05-07T18:05:49.423Z,11.57
2019-05-07T18:08:22.335Z,16.02
2019-05-07T18:10:55.344Z,12.68
2019-05-07T18:13:29.283Z,14.63
2019-05-07T18:16:19.127Z,10.70
2019-05-07T18:18:52.363Z,11.25
2019-05-07T18:21:25.220Z,9.50
2019-05-07T18:24:12.690Z,29.57
2019-05-07T18:26:33.705Z,18.67
2019-05-07T18:29:06.890Z,19.27
2019-05-07T18:31:52.507Z,13.28
2019-05-07T18:34:25.342Z,12.82
2019-05-07T18:36:58.186Z,11.00
2019-05-07T18:39:32.429Z,13.05
2019-05-07T18:42:05.585Z,14.90
2019-05-07T18:44:38.493Z,16.07
2019-05-07T18:47:12.930Z,16.52
2019-05-07T18:49:46.013Z,11.40
2019-05-07T18:52:18.970Z,12.03
2019-05-07T18:54:52.151Z,10.82
2019-05-07T18:57:25.278Z,16.90
2019-05-07T18:59:58.373Z,11.38
2019-05-07T19:02:31.930Z,14.00
2019-05-07T19:05:05.332Z,13.30
2019-05-07T19:07:38.332Z,14.38
2019-05-07T19:10:12.761Z,12.13
2019-05-07T19:12:45.849Z,12.93
2019-05-07T19:15:19.168Z,17.45
2019-05-07T19:17:52.436Z,14.87
2019-05-07T19:20:25.663Z,14.90
2019-05-07T19:22:58.605Z,17.75
2019-05-07T19:25:32.647Z,20.52
2019-05-07T19:28:07.203Z,27.05
2019-05-07T19:30:42.011Z,22.05
2019-05-07T19:33:15.199Z,21.30
2019-05-07T19:35:48.103Z,22.82
2019-05-07T19:38:21.100Z,23.95
2019-05-07T19:40:53.981Z,17.25
2019-05-07T19:43:27.165Z,25.85
2019-05-07T19:46:00.090Z,21.45
2019-05-07T19:48:33.019Z,26.17
2019-05-07T19:51:06.133Z,38.30
2019-05-07T19:53:41.968Z,41.60
2019-05-07T19:56:17.900Z,37.80
2019-05-07T19:58:52.608Z,40.65
2019-05-07T20:01:32.370Z,30.52
2019-05-07T20:04:05.675Z,33.83
2019-05-07T20:06:38.660Z,28.73
2019-05-07T20:09:15.546Z,37.83
2019-05-07T20:11:52.154Z,42.58
2019-05-07T20:14:24.157Z,43.35
2019-05-07T20:16:57.208Z,35.10
2019-05-07T20:19:32.140Z,39.67
2019-05-07T20:22:04.909Z,30.37
2019-05-07T20:24:37.811Z,32.28
2019-05-07T20:27:12.445Z,41.02
2019-05-07T20:29:45.783Z,43.20
2019-05-07T20:32:18.718Z,56.50
2019-05-07T20:34:52.091Z,56.73
2019-05-07T20:37:25.219Z,52.13
2019-05-07T20:39:58.343Z,55.10
2019-05-07T20:42:32.380Z,54.40
2019-05-07T20:45:06.539Z,55.90
2019-05-07T20:47:39.506Z,63.83
2019-05-07T20:50:12.925Z,62.85
2019-05-07T20:52:46.027Z,63.42
2019-05-07T20:55:43.111Z,64.17
2019-05-07T20:58:16.121Z,65.72
2019-05-07T21:00:49.148Z,56.20
2019-05-07T21:03:23.966Z,48.17
2019-05-07T21:05:56.954Z,53.10
2019-05-07T21:08:31.918Z,41.37
2019-05-07T21:11:04.654Z,41.20
2019-05-07T21:13:37.606Z,53.05
2019-05-07T21:16:12.627Z,42.10
2019-05-07T21:18:45.180Z,28.87
2019-05-07T21:21:18.072Z,32.17
2019-05-07T21:23:52.762Z,30.02
2019-05-07T21:26:25.870Z,42.55
2019-05-07T21:28:58.755Z,44.95
2019-05-07T21:31:32.167Z,46.08
2019-05-07T21:34:05.384Z,50.65
2019-05-07T21:36:38.238Z,43.00
2019-05-07T21:39:12.953Z,44.53
2019-05-07T21:41:45.527Z,56.48
2019-05-07T21:44:18.405Z,38.38
2019-05-07T21:46:51.833Z,40.33
2019-05-07T21:49:24.856Z,41.40
2019-05-07T21:51:57.679Z,46.60
2019-05-07T21:54:37.145Z,62.40
2019-05-07T21:57:28.942Z,58.50
2019-05-07T22:00:32.911Z,54.00
2019-05-07T22:03:12.543Z,48.10
2019-05-07T22:05:45.461Z,36.20
2019-05-07T22:08:18.331Z,38.00
2019-05-07T22:10:51.163Z,41.60
2019-05-07T22:13:24.109Z,50.27
2019-05-07T22:15:57.013Z,61.83
2019-05-07T22:18:31.946Z,93.60
2019-05-07T22:21:04.503Z,91.02
2019-05-07T22:23:37.657Z,55.03
2019-05-07T22:26:20.167Z,43.38
2019-05-07T22:28:45.153Z,49.95
2019-05-07T22:31:26.080Z,50.52
2019-05-07T22:34:08.333Z,60.53
2019-05-07T22:36:43.159Z,54.85
2019-05-07T22:39:17.401Z,61.53
2019-05-07T22:41:51.852Z,74.20
2019-05-07T22:44:26.492Z,89.15
2019-05-07T22:47:07.067Z,78.40
2019-05-07T22:49:41.994Z,74.40
2019-05-07T22:52:14.752Z,79.58
2019-05-07T22:54:47.615Z,82.15
2019-05-07T22:57:35.943Z,79.90
2019-05-07T23:00:12.587Z,81.25
2019-05-07T23:02:47.004Z,80.53
2019-05-07T23:05:19.827Z,78.37
2019-05-07T23:07:52.900Z,79.30
2019-05-07T23:10:25.687Z,75.57
2019-05-07T23:12:58.724Z,83.30
2019-05-07T23:15:32.255Z,80.63
2019-05-07T23:18:05.368Z,81.57
2019-05-07T23:20:38.317Z,85.10
2019-05-07T23:23:13.911Z,84.87
2019-05-07T23:25:45.938Z,84.80
2019-05-07T23:28:18.740Z,85.85
2019-05-07T23:30:51.943Z,90.27
2019-05-07T23:33:24.890Z,87.02
2019-05-07T23:35:57.783Z,76.03
2019-05-07T23:38:31.959Z,76.80
2019-05-07T23:41:33.084Z,70.63
2019-05-07T23:44:30.721Z,95.57
2019-05-07T23:47:03.592Z,91.80
2019-05-07T23:49:36.414Z,75.57
2019-05-07T23:52:09.250Z,108.37
2019-05-07T23:54:42.600Z,111.77
2019-05-07T23:57:15.660Z,103.33
2019-05-07T23:59:48.540Z,102.38
